Cochrane Airport


Codes: SCHR/LGR
Name: Cochrane Airport
City: Cochrane
Country: Chile
Elevation: 643 ft.

Photos at Cochrane Airport


   Photos courtesy of SpottingLog. You can add your own sightings and photos by signing up for a free trial today.



No photos found.

Weather at Cochrane Airport


Time (UTC)DescriptionTempratureWindCloud coverageVisibilityPressureHumidity
16-Jun-2024 00:00Scattered Clouds0°C2 mph, W42%10000m1015hPa97%
16-Jun-2024 03:00Broken Clouds0°C2 mph, W59%1777m1015hPa98%
16-Jun-2024 06:00Light Snow1°C2 mph, W77%575m1016hPa98%
16-Jun-2024 09:00Overcast Clouds1°C2 mph, W94%489m1016hPa99%
16-Jun-2024 12:00Overcast Clouds1°C2 mph, W96%432m1016hPa99%
16-Jun-2024 15:00Overcast Clouds2°C2 mph, SW99%6486m1015hPa94%
16-Jun-2024 18:00Overcast Clouds4°C0 mph, SW100%10000m1013hPa93%
16-Jun-2024 21:00Overcast Clouds3°C0 mph, NW100%10000m1011hPa97%
17-Jun-2024 00:00Light Snow2°C2 mph, E100%4654m1009hPa97%
17-Jun-2024 03:00Light Snow2°C4 mph, E100%117m1008hPa98%
17-Jun-2024 06:00Light Snow1°C2 mph, E97%161m1007hPa98%
17-Jun-2024 09:00Light Snow0°C2 mph, SE99%10000m1005hPa98%
17-Jun-2024 12:00Overcast Clouds1°C2 mph, E98%10000m1004hPa96%
17-Jun-2024 15:00Overcast Clouds3°C4 mph, E99%10000m1004hPa87%
17-Jun-2024 18:00Light Snow3°C2 mph, NE99%308m1003hPa95%
17-Jun-2024 21:00Snow2°C4 mph, E100%398m1005hPa97%
18-Jun-2024 00:00Light Snow1°C7 mph, E100%10000m1008hPa92%
18-Jun-2024 03:00Overcast Clouds-0°C4 mph, E100%10000m1010hPa92%
18-Jun-2024 06:00Overcast Clouds-1°C4 mph, E100%10000m1011hPa94%
18-Jun-2024 09:00Overcast Clouds-1°C4 mph, E100%10000m1013hPa91%
18-Jun-2024 12:00Overcast Clouds-1°C4 mph, E100%10000m1014hPa87%
18-Jun-2024 15:00Light Snow-1°C4 mph, E100%10000m1016hPa82%
18-Jun-2024 18:00Overcast Clouds-0°C7 mph, NE100%10000m1016hPa72%
18-Jun-2024 21:00Overcast Clouds-2°C4 mph, E100%10000m1018hPa84%
19-Jun-2024 00:00Overcast Clouds-3°C4 mph, E100%10000m1020hPa89%
19-Jun-2024 03:00Overcast Clouds-3°C2 mph, E100%10000m1022hPa89%
19-Jun-2024 06:00Overcast Clouds-3°C2 mph, E100%10000m1023hPa91%
19-Jun-2024 09:00Overcast Clouds-4°C2 mph, E100%10000m1024hPa91%
19-Jun-2024 12:00Overcast Clouds-5°C2 mph, E97%10000m1026hPa92%
19-Jun-2024 15:00Overcast Clouds-3°C4 mph, E97%10000m1027hPa79%
19-Jun-2024 18:00Overcast Clouds-1°C4 mph, NE93%10000m1026hPa68%
19-Jun-2024 21:00Scattered Clouds-4°C4 mph, NE43%10000m1027hPa88%
20-Jun-2024 00:00Scattered Clouds-6°C2 mph, NE26%10000m1029hPa91%
20-Jun-2024 03:00Clear Sky-8°C2 mph, NE7%10000m1030hPa89%
20-Jun-2024 06:00Clear Sky-9°C0 mph, NE7%10000m1029hPa91%
20-Jun-2024 09:00Clear Sky-9°C2 mph, NE10%10000m1029hPa89%
20-Jun-2024 12:00Clear Sky-10°C2 mph, NE10%10000m1029hPa89%
20-Jun-2024 15:00Clear Sky-7°C2 mph, NE9%10000m1029hPa73%
20-Jun-2024 18:00Clear Sky-4°C2 mph, NE6%10000m1026hPa61%
20-Jun-2024 21:00Clear Sky-7°C4 mph, NE0%10000m1025hPa81%